Woollum, Kentucky
Current Conditions -  °F | °C
As of 1:53 PM on Thursday 18 Dec 2014 (Local Time) from KLOZ Reporting Station
Overcast Overcast  
Wind Chill: 36°   Ceiling: 5000
Heat Index: 36°   Visibility: 10mi
Dew Point: 26°   Wind: 3mph
Humidity: 67%   Direction: 310°NW
Pressure: 30.18"   Gusts: NA
Location:  37.02°N, 83.82°W
Report Text: KLOZ 181853Z AUTO 31003KT 10SM OVC050 02/M03 A3018 RMK AO2 SLP229 T00221033
Loading
Personal Weather Stations






























Interactive Weather Map New forecast layout! Learn more

10-Day Weather Forecast

Advertisements
Track Severe Weather on mobile